Terminal Aerodrome Forecast
Issued by NWS

Home | Current Version | Previous Version | Text Only | Print | Product List | Glossary On
Versions: 1 2 3 4 5 6 7 8 9 10 11 12 13 14 15 16 17 18 19 20 21 22 23 24 25 26 27 28
000
FTUS46 KSEW 292103 AAA
TAFSEA
TAF AMD
KSEA 292103Z 2921/3024 21017G24KT P6SM VCSH BKN016 OVC024
     FM292300 22013KT P6SM SCT035 BKN050
      TEMPO 2923/3003 BKN035 BKN050
     FM300300 21013KT P6SM VCSH BKN035
     FM300600 21010KT P6SM VCSH OVC025
     FM302100 25008KT P6SM VCSH BKN045=

USA.gov is the U.S. government's official web portal to all federal, state and local government web resources and services.